sensor_id;sensor_type;location;lat;lon;timestamp;P1;durP1;ratioP1;P2;durP2;ratioP2
4867;SDS011;2448;48.086;10.862;2023-05-02T00:01:48;2.67;;;2.47;;
4867;SDS011;2448;48.086;10.862;2023-05-02T00:04:14;2.60;;;2.40;;
4867;SDS011;2448;48.086;10.862;2023-05-02T00:06:39;2.50;;;2.30;;
4867;SDS011;2448;48.086;10.862;2023-05-02T00:09:06;2.47;;;2.33;;
4867;SDS011;2448;48.086;10.862;2023-05-02T00:11:31;2.57;;;2.43;;
4867;SDS011;2448;48.086;10.862;2023-05-02T00:13:57;2.40;;;2.20;;
4867;SDS011;2448;48.086;10.862;2023-05-02T00:16:22;2.80;;;2.57;;
4867;SDS011;2448;48.086;10.862;2023-05-02T00:18:48;3.07;;;2.63;;
4867;SDS011;2448;48.086;10.862;2023-05-02T00:21:13;2.37;;;2.07;;
4867;SDS011;2448;48.086;10.862;2023-05-02T00:23:38;2.70;;;2.57;;
4867;SDS011;2448;48.086;10.862;2023-05-02T00:26:07;2.53;;;2.33;;
4867;SDS011;2448;48.086;10.862;2023-05-02T00:28:32;2.27;;;2.17;;
4867;SDS011;2448;48.086;10.862;2023-05-02T00:30:58;2.33;;;2.13;;
4867;SDS011;2448;48.086;10.862;2023-05-02T00:33:23;2.07;;;1.97;;
4867;SDS011;2448;48.086;10.862;2023-05-02T00:35:48;2.20;;;2.10;;
4867;SDS011;2448;48.086;10.862;2023-05-02T00:38:15;2.73;;;2.53;;
4867;SDS011;2448;48.086;10.862;2023-05-02T00:40:47;2.83;;;2.63;;
4867;SDS011;2448;48.086;10.862;2023-05-02T00:43:13;2.50;;;2.30;;
4867;SDS011;2448;48.086;10.862;2023-05-02T00:45:39;1.83;;;1.73;;
4867;SDS011;2448;48.086;10.862;2023-05-02T00:48:06;2.40;;;2.20;;
4867;SDS011;2448;48.086;10.862;2023-05-02T00:50:37;2.07;;;1.97;;
4867;SDS011;2448;48.086;10.862;2023-05-02T00:53:03;3.40;;;2.20;;
4867;SDS011;2448;48.086;10.862;2023-05-02T00:55:30;2.00;;;1.90;;
4867;SDS011;2448;48.086;10.862;2023-05-02T00:57:55;2.23;;;2.13;;
4867;SDS011;2448;48.086;10.862;2023-05-02T01:00:21;2.40;;;2.20;;
4867;SDS011;2448;48.086;10.862;2023-05-02T01:02:52;2.07;;;1.97;;
4867;SDS011;2448;48.086;10.862;2023-05-02T01:05:34;2.20;;;2.10;;
4867;SDS011;2448;48.086;10.862;2023-05-02T01:10:54;1.90;;;1.80;;
4867;SDS011;2448;48.086;10.862;2023-05-02T01:13:25;1.90;;;1.80;;
4867;SDS011;2448;48.086;10.862;2023-05-02T01:15:52;2.10;;;2.00;;
4867;SDS011;2448;48.086;10.862;2023-05-02T01:18:21;2.00;;;1.90;;
4867;SDS011;2448;48.086;10.862;2023-05-02T01:20:49;2.23;;;2.13;;
4867;SDS011;2448;48.086;10.862;2023-05-02T01:23:20;1.80;;;1.70;;
4867;SDS011;2448;48.086;10.862;2023-05-02T01:25:52;2.40;;;2.20;;
4867;SDS011;2448;48.086;10.862;2023-05-02T01:28:33;2.70;;;2.20;;
4867;SDS011;2448;48.086;10.862;2023-05-02T01:31:01;2.47;;;2.27;;
4867;SDS011;2448;48.086;10.862;2023-05-02T01:33:27;2.60;;;2.40;;
4867;SDS011;2448;48.086;10.862;2023-05-02T01:35:54;2.20;;;2.10;;
4867;SDS011;2448;48.086;10.862;2023-05-02T01:38:20;2.93;;;2.13;;
4867;SDS011;2448;48.086;10.862;2023-05-02T01:40:47;2.30;;;2.20;;
4867;SDS011;2448;48.086;10.862;2023-05-02T01:43:14;2.10;;;2.00;;
4867;SDS011;2448;48.086;10.862;2023-05-02T01:45:42;2.80;;;2.60;;
4867;SDS011;2448;48.086;10.862;2023-05-02T01:48:08;2.40;;;2.20;;
4867;SDS011;2448;48.086;10.862;2023-05-02T01:50:34;2.57;;;2.37;;
4867;SDS011;2448;48.086;10.862;2023-05-02T01:53:00;2.10;;;2.00;;
4867;SDS011;2448;48.086;10.862;2023-05-02T01:55:27;2.50;;;2.30;;
4867;SDS011;2448;48.086;10.862;2023-05-02T01:57:53;2.40;;;2.20;;
4867;SDS011;2448;48.086;10.862;2023-05-02T02:00:20;2.30;;;2.20;;
4867;SDS011;2448;48.086;10.862;2023-05-02T02:02:47;1.67;;;1.57;;
4867;SDS011;2448;48.086;10.862;2023-05-02T02:05:13;2.10;;;2.00;;
4867;SDS011;2448;48.086;10.862;2023-05-02T02:07:38;1.60;;;1.60;;
4867;SDS011;2448;48.086;10.862;2023-05-02T02:10:04;1.97;;;1.87;;
4867;SDS011;2448;48.086;10.862;2023-05-02T02:12:31;3.87;;;2.70;;
4867;SDS011;2448;48.086;10.862;2023-05-02T02:20:00;2.33;;;2.13;;
4867;SDS011;2448;48.086;10.862;2023-05-02T02:22:27;2.40;;;2.30;;
4867;SDS011;2448;48.086;10.862;2023-05-02T02:24:53;2.00;;;1.90;;
4867;SDS011;2448;48.086;10.862;2023-05-02T02:27:19;2.60;;;2.40;;
4867;SDS011;2448;48.086;10.862;2023-05-02T02:29:44;2.10;;;2.00;;
4867;SDS011;2448;48.086;10.862;2023-05-02T02:32:11;2.50;;;2.40;;
4867;SDS011;2448;48.086;10.862;2023-05-02T02:34:36;2.10;;;2.00;;
4867;SDS011;2448;48.086;10.862;2023-05-02T02:37:08;2.20;;;2.10;;
4867;SDS011;2448;48.086;10.862;2023-05-02T02:42:32;2.40;;;2.23;;
4867;SDS011;2448;48.086;10.862;2023-05-02T02:44:59;2.10;;;2.00;;
4867;SDS011;2448;48.086;10.862;2023-05-02T02:50:14;1.87;;;1.77;;
4867;SDS011;2448;48.086;10.862;2023-05-02T02:53:16;2.37;;;2.17;;
4867;SDS011;2448;48.086;10.862;2023-05-02T02:57:59;2.07;;;1.97;;
4867;SDS011;2448;48.086;10.862;2023-05-02T03:00:26;2.13;;;1.90;;
4867;SDS011;2448;48.086;10.862;2023-05-02T03:02:52;1.93;;;1.83;;
4867;SDS011;2448;48.086;10.862;2023-05-02T03:05:18;2.07;;;1.70;;
4867;SDS011;2448;48.086;10.862;2023-05-02T03:07:45;2.57;;;2.37;;
4867;SDS011;2448;48.086;10.862;2023-05-02T03:10:10;1.90;;;1.80;;
4867;SDS011;2448;48.086;10.862;2023-05-02T03:12:37;2.57;;;2.37;;
4867;SDS011;2448;48.086;10.862;2023-05-02T03:17:39;3.40;;;2.00;;
4867;SDS011;2448;48.086;10.862;2023-05-02T03:20:05;9.00;;;2.40;;
4867;SDS011;2448;48.086;10.862;2023-05-02T03:22:31;1.77;;;1.77;;
4867;SDS011;2448;48.086;10.862;2023-05-02T03:24:57;2.47;;;2.20;;
4867;SDS011;2448;48.086;10.862;2023-05-02T03:27:22;1.63;;;1.60;;
4867;SDS011;2448;48.086;10.862;2023-05-02T03:29:48;2.10;;;2.00;;
4867;SDS011;2448;48.086;10.862;2023-05-02T03:32:14;1.70;;;1.60;;
4867;SDS011;2448;48.086;10.862;2023-05-02T03:34:41;5.60;;;2.70;;
4867;SDS011;2448;48.086;10.862;2023-05-02T03:37:07;2.50;;;2.40;;
4867;SDS011;2448;48.086;10.862;2023-05-02T03:39:32;2.33;;;2.23;;
4867;SDS011;2448;48.086;10.862;2023-05-02T03:41:58;2.10;;;2.00;;
4867;SDS011;2448;48.086;10.862;2023-05-02T03:44:23;1.93;;;1.87;;
4867;SDS011;2448;48.086;10.862;2023-05-02T03:46:49;2.40;;;2.20;;
4867;SDS011;2448;48.086;10.862;2023-05-02T03:49:14;2.07;;;1.97;;
4867;SDS011;2448;48.086;10.862;2023-05-02T03:51:42;2.00;;;1.90;;
4867;SDS011;2448;48.086;10.862;2023-05-02T03:54:08;2.00;;;1.90;;
4867;SDS011;2448;48.086;10.862;2023-05-02T03:56:37;2.00;;;1.90;;
4867;SDS011;2448;48.086;10.862;2023-05-02T03:59:17;3.30;;;3.10;;
4867;SDS011;2448;48.086;10.862;2023-05-02T04:01:43;2.50;;;2.30;;
4867;SDS011;2448;48.086;10.862;2023-05-02T04:04:11;1.97;;;1.90;;
4867;SDS011;2448;48.086;10.862;2023-05-02T04:06:43;3.90;;;2.63;;
4867;SDS011;2448;48.086;10.862;2023-05-02T04:09:09;2.97;;;2.77;;
4867;SDS011;2448;48.086;10.862;2023-05-02T04:11:41;2.10;;;2.00;;
4867;SDS011;2448;48.086;10.862;2023-05-02T04:14:07;3.50;;;3.03;;
4867;SDS011;2448;48.086;10.862;2023-05-02T04:16:33;4.10;;;3.70;;
4867;SDS011;2448;48.086;10.862;2023-05-02T04:18:59;44.97;;;9.37;;
4867;SDS011;2448;48.086;10.862;2023-05-02T04:21:25;31.23;;;5.33;;
4867;SDS011;2448;48.086;10.862;2023-05-02T04:23:50;12.77;;;3.70;;
4867;SDS011;2448;48.086;10.862;2023-05-02T04:26:17;10.30;;;4.07;;
4867;SDS011;2448;48.086;10.862;2023-05-02T04:28:49;8.17;;;4.60;;
4867;SDS011;2448;48.086;10.862;2023-05-02T04:31:15;4.90;;;3.37;;
4867;SDS011;2448;48.086;10.862;2023-05-02T04:33:42;4.03;;;3.20;;
4867;SDS011;2448;48.086;10.862;2023-05-02T04:36:09;21.80;;;4.20;;
4867;SDS011;2448;48.086;10.862;2023-05-02T04:38:38;6.50;;;3.50;;
4867;SDS011;2448;48.086;10.862;2023-05-02T04:41:03;5.80;;;2.37;;
4867;SDS011;2448;48.086;10.862;2023-05-02T04:43:37;11.33;;;4.50;;
4867;SDS011;2448;48.086;10.862;2023-05-02T04:46:02;7.10;;;4.53;;
4867;SDS011;2448;48.086;10.862;2023-05-02T04:48:34;17.97;;;4.13;;
4867;SDS011;2448;48.086;10.862;2023-05-02T04:51:00;8.30;;;4.20;;
4867;SDS011;2448;48.086;10.862;2023-05-02T04:53:27;4.73;;;3.53;;
4867;SDS011;2448;48.086;10.862;2023-05-02T04:55:52;4.90;;;3.70;;
4867;SDS011;2448;48.086;10.862;2023-05-02T04:58:18;2.93;;;2.73;;
4867;SDS011;2448;48.086;10.862;2023-05-02T05:00:47;7.10;;;3.70;;
4867;SDS011;2448;48.086;10.862;2023-05-02T05:03:13;5.40;;;3.90;;
4867;SDS011;2448;48.086;10.862;2023-05-02T05:05:39;3.30;;;2.90;;
4867;SDS011;2448;48.086;10.862;2023-05-02T05:08:07;4.20;;;3.30;;
4867;SDS011;2448;48.086;10.862;2023-05-02T05:10:35;7.30;;;4.20;;
4867;SDS011;2448;48.086;10.862;2023-05-02T05:13:01;8.80;;;4.27;;
4867;SDS011;2448;48.086;10.862;2023-05-02T05:15:28;15.53;;;8.33;;
4867;SDS011;2448;48.086;10.862;2023-05-02T05:17:56;7.33;;;5.17;;
4867;SDS011;2448;48.086;10.862;2023-05-02T05:20:23;11.27;;;5.30;;
4867;SDS011;2448;48.086;10.862;2023-05-02T05:22:51;15.40;;;8.00;;
4867;SDS011;2448;48.086;10.862;2023-05-02T05:25:18;9.13;;;7.53;;
4867;SDS011;2448;48.086;10.862;2023-05-02T05:27:45;3.33;;;3.10;;
4867;SDS011;2448;48.086;10.862;2023-05-02T05:30:11;8.03;;;4.90;;
4867;SDS011;2448;48.086;10.862;2023-05-02T05:32:37;5.53;;;4.60;;
4867;SDS011;2448;48.086;10.862;2023-05-02T05:35:02;4.83;;;4.20;;
4867;SDS011;2448;48.086;10.862;2023-05-02T05:37:29;6.13;;;4.50;;
4867;SDS011;2448;48.086;10.862;2023-05-02T05:39:56;4.43;;;4.03;;
4867;SDS011;2448;48.086;10.862;2023-05-02T05:42:21;3.83;;;3.43;;
4867;SDS011;2448;48.086;10.862;2023-05-02T05:44:50;5.93;;;4.77;;
4867;SDS011;2448;48.086;10.862;2023-05-02T05:47:19;3.60;;;3.27;;
4867;SDS011;2448;48.086;10.862;2023-05-02T05:49:51;2.70;;;2.60;;
4867;SDS011;2448;48.086;10.862;2023-05-02T05:52:17;5.27;;;4.57;;
4867;SDS011;2448;48.086;10.862;2023-05-02T05:54:42;4.97;;;4.20;;
4867;SDS011;2448;48.086;10.862;2023-05-02T05:57:08;3.80;;;3.40;;
4867;SDS011;2448;48.086;10.862;2023-05-02T05:59:36;4.37;;;3.97;;
4867;SDS011;2448;48.086;10.862;2023-05-02T06:02:03;3.50;;;3.20;;
4867;SDS011;2448;48.086;10.862;2023-05-02T06:04:29;5.10;;;4.27;;
4867;SDS011;2448;48.086;10.862;2023-05-02T06:06:55;12.40;;;3.57;;
4867;SDS011;2448;48.086;10.862;2023-05-02T06:09:20;3.70;;;3.30;;
4867;SDS011;2448;48.086;10.862;2023-05-02T06:11:46;3.23;;;2.93;;
4867;SDS011;2448;48.086;10.862;2023-05-02T06:14:11;3.00;;;2.80;;
4867;SDS011;2448;48.086;10.862;2023-05-02T06:16:37;3.30;;;3.10;;
4867;SDS011;2448;48.086;10.862;2023-05-02T06:19:02;5.13;;;4.60;;
4867;SDS011;2448;48.086;10.862;2023-05-02T06:21:28;7.03;;;3.87;;
4867;SDS011;2448;48.086;10.862;2023-05-02T06:23:53;4.60;;;4.20;;
4867;SDS011;2448;48.086;10.862;2023-05-02T06:26:19;8.00;;;6.10;;
4867;SDS011;2448;48.086;10.862;2023-05-02T06:28:45;5.53;;;4.90;;
4867;SDS011;2448;48.086;10.862;2023-05-02T06:31:11;6.33;;;5.73;;
4867;SDS011;2448;48.086;10.862;2023-05-02T06:33:36;8.27;;;5.60;;
4867;SDS011;2448;48.086;10.862;2023-05-02T06:36:01;9.30;;;5.93;;
4867;SDS011;2448;48.086;10.862;2023-05-02T06:38:27;6.70;;;4.30;;
4867;SDS011;2448;48.086;10.862;2023-05-02T06:40:52;11.20;;;4.83;;
4867;SDS011;2448;48.086;10.862;2023-05-02T06:43:18;4.17;;;3.37;;
4867;SDS011;2448;48.086;10.862;2023-05-02T06:45:43;4.40;;;4.00;;
4867;SDS011;2448;48.086;10.862;2023-05-02T06:48:09;4.20;;;3.80;;
4867;SDS011;2448;48.086;10.862;2023-05-02T06:50:35;3.93;;;3.47;;
4867;SDS011;2448;48.086;10.862;2023-05-02T06:53:01;4.87;;;3.83;;
4867;SDS011;2448;48.086;10.862;2023-05-02T06:55:26;4.03;;;3.63;;
4867;SDS011;2448;48.086;10.862;2023-05-02T06:57:52;6.50;;;3.50;;
4867;SDS011;2448;48.086;10.862;2023-05-02T07:00:18;4.10;;;3.37;;
4867;SDS011;2448;48.086;10.862;2023-05-02T07:02:44;5.80;;;4.10;;
4867;SDS011;2448;48.086;10.862;2023-05-02T07:05:10;4.90;;;4.10;;
4867;SDS011;2448;48.086;10.862;2023-05-02T07:07:35;3.97;;;3.57;;
4867;SDS011;2448;48.086;10.862;2023-05-02T07:10:01;3.90;;;3.27;;
4867;SDS011;2448;48.086;10.862;2023-05-02T07:12:27;5.13;;;4.10;;
4867;SDS011;2448;48.086;10.862;2023-05-02T07:14:52;3.70;;;3.40;;
4867;SDS011;2448;48.086;10.862;2023-05-02T07:17:18;3.80;;;3.40;;
4867;SDS011;2448;48.086;10.862;2023-05-02T07:19:43;3.63;;;3.27;;
4867;SDS011;2448;48.086;10.862;2023-05-02T07:22:09;3.67;;;3.37;;
4867;SDS011;2448;48.086;10.862;2023-05-02T07:24:34;3.70;;;3.40;;
4867;SDS011;2448;48.086;10.862;2023-05-02T07:26:59;4.27;;;3.87;;
4867;SDS011;2448;48.086;10.862;2023-05-02T07:29:25;4.20;;;3.80;;
4867;SDS011;2448;48.086;10.862;2023-05-02T07:31:51;6.43;;;4.20;;
4867;SDS011;2448;48.086;10.862;2023-05-02T07:34:16;5.87;;;3.90;;
4867;SDS011;2448;48.086;10.862;2023-05-02T07:36:41;4.10;;;3.70;;
4867;SDS011;2448;48.086;10.862;2023-05-02T07:39:07;5.53;;;4.30;;
4867;SDS011;2448;48.086;10.862;2023-05-02T07:41:32;5.40;;;4.30;;
4867;SDS011;2448;48.086;10.862;2023-05-02T07:43:58;5.00;;;4.30;;
4867;SDS011;2448;48.086;10.862;2023-05-02T07:46:23;5.40;;;4.03;;
4867;SDS011;2448;48.086;10.862;2023-05-02T07:48:49;9.40;;;4.53;;
4867;SDS011;2448;48.086;10.862;2023-05-02T07:51:15;4.37;;;3.93;;
4867;SDS011;2448;48.086;10.862;2023-05-02T07:53:40;5.50;;;3.97;;
4867;SDS011;2448;48.086;10.862;2023-05-02T07:56:06;6.37;;;4.87;;
4867;SDS011;2448;48.086;10.862;2023-05-02T07:58:33;7.57;;;4.63;;
4867;SDS011;2448;48.086;10.862;2023-05-02T08:00:58;5.00;;;4.33;;
4867;SDS011;2448;48.086;10.862;2023-05-02T08:03:24;5.27;;;4.40;;
4867;SDS011;2448;48.086;10.862;2023-05-02T08:05:49;5.03;;;4.20;;
4867;SDS011;2448;48.086;10.862;2023-05-02T08:08:15;5.17;;;4.50;;
4867;SDS011;2448;48.086;10.862;2023-05-02T08:10:40;9.03;;;4.77;;
4867;SDS011;2448;48.086;10.862;2023-05-02T08:13:06;6.13;;;4.83;;
4867;SDS011;2448;48.086;10.862;2023-05-02T08:15:31;5.40;;;4.60;;
4867;SDS011;2448;48.086;10.862;2023-05-02T08:17:56;6.87;;;4.70;;
4867;SDS011;2448;48.086;10.862;2023-05-02T08:20:22;8.07;;;5.10;;
4867;SDS011;2448;48.086;10.862;2023-05-02T08:22:47;6.97;;;4.70;;
4867;SDS011;2448;48.086;10.862;2023-05-02T08:25:12;6.40;;;5.00;;
4867;SDS011;2448;48.086;10.862;2023-05-02T08:27:38;7.87;;;5.60;;
4867;SDS011;2448;48.086;10.862;2023-05-02T08:30:04;6.57;;;5.00;;
4867;SDS011;2448;48.086;10.862;2023-05-02T08:32:30;5.87;;;4.83;;
4867;SDS011;2448;48.086;10.862;2023-05-02T08:34:56;8.27;;;5.00;;
4867;SDS011;2448;48.086;10.862;2023-05-02T08:37:21;7.40;;;5.33;;
4867;SDS011;2448;48.086;10.862;2023-05-02T08:39:47;5.53;;;4.77;;
4867;SDS011;2448;48.086;10.862;2023-05-02T08:42:12;5.23;;;4.50;;
4867;SDS011;2448;48.086;10.862;2023-05-02T08:44:37;7.30;;;4.63;;
4867;SDS011;2448;48.086;10.862;2023-05-02T08:47:03;5.87;;;5.17;;
4867;SDS011;2448;48.086;10.862;2023-05-02T08:49:32;8.83;;;5.00;;
4867;SDS011;2448;48.086;10.862;2023-05-02T08:51:59;6.43;;;4.20;;
4867;SDS011;2448;48.086;10.862;2023-05-02T08:54:26;6.20;;;5.37;;
4867;SDS011;2448;48.086;10.862;2023-05-02T08:56:55;5.63;;;4.63;;
4867;SDS011;2448;48.086;10.862;2023-05-02T08:59:20;4.40;;;4.00;;
4867;SDS011;2448;48.086;10.862;2023-05-02T09:01:47;6.10;;;4.47;;
4867;SDS011;2448;48.086;10.862;2023-05-02T09:04:13;5.47;;;4.53;;
4867;SDS011;2448;48.086;10.862;2023-05-02T09:06:39;8.10;;;4.73;;
4867;SDS011;2448;48.086;10.862;2023-05-02T09:09:04;4.67;;;4.20;;
4867;SDS011;2448;48.086;10.862;2023-05-02T09:11:29;6.67;;;5.23;;
4867;SDS011;2448;48.086;10.862;2023-05-02T09:13:55;7.70;;;4.63;;
4867;SDS011;2448;48.086;10.862;2023-05-02T09:16:24;6.17;;;4.77;;
4867;SDS011;2448;48.086;10.862;2023-05-02T09:18:50;5.30;;;4.80;;
4867;SDS011;2448;48.086;10.862;2023-05-02T09:21:17;6.70;;;5.10;;
4867;SDS011;2448;48.086;10.862;2023-05-02T09:23:53;6.83;;;4.73;;
4867;SDS011;2448;48.086;10.862;2023-05-02T09:26:19;5.70;;;5.20;;
4867;SDS011;2448;48.086;10.862;2023-05-02T09:28:47;6.90;;;5.20;;
4867;SDS011;2448;48.086;10.862;2023-05-02T09:31:13;5.10;;;4.10;;
4867;SDS011;2448;48.086;10.862;2023-05-02T09:33:39;7.40;;;4.90;;
4867;SDS011;2448;48.086;10.862;2023-05-02T09:36:05;7.37;;;6.17;;
4867;SDS011;2448;48.086;10.862;2023-05-02T09:38:31;7.87;;;5.37;;
4867;SDS011;2448;48.086;10.862;2023-05-02T09:40:57;6.23;;;4.37;;
4867;SDS011;2448;48.086;10.862;2023-05-02T09:43:23;6.37;;;5.40;;
4867;SDS011;2448;48.086;10.862;2023-05-02T09:45:55;7.17;;;4.90;;
4867;SDS011;2448;48.086;10.862;2023-05-02T09:48:20;7.27;;;4.33;;
4867;SDS011;2448;48.086;10.862;2023-05-02T09:50:45;4.83;;;4.40;;
4867;SDS011;2448;48.086;10.862;2023-05-02T09:53:11;5.43;;;4.70;;
4867;SDS011;2448;48.086;10.862;2023-05-02T09:55:36;7.10;;;4.53;;
4867;SDS011;2448;48.086;10.862;2023-05-02T09:58:02;4.80;;;4.30;;
4867;SDS011;2448;48.086;10.862;2023-05-02T10:03:05;5.77;;;4.40;;
4867;SDS011;2448;48.086;10.862;2023-05-02T10:05:32;5.60;;;4.40;;
4867;SDS011;2448;48.086;10.862;2023-05-02T10:07:58;7.40;;;4.00;;
4867;SDS011;2448;48.086;10.862;2023-05-02T10:10:23;5.40;;;4.10;;
4867;SDS011;2448;48.086;10.862;2023-05-02T10:12:49;5.63;;;4.57;;
4867;SDS011;2448;48.086;10.862;2023-05-02T10:15:16;4.20;;;3.87;;
4867;SDS011;2448;48.086;10.862;2023-05-02T10:17:45;5.83;;;4.60;;
4867;SDS011;2448;48.086;10.862;2023-05-02T10:20:13;6.67;;;4.80;;
4867;SDS011;2448;48.086;10.862;2023-05-02T10:22:41;6.67;;;4.83;;
4867;SDS011;2448;48.086;10.862;2023-05-02T10:25:07;4.67;;;4.27;;
4867;SDS011;2448;48.086;10.862;2023-05-02T10:27:33;4.33;;;3.93;;
4867;SDS011;2448;48.086;10.862;2023-05-02T10:29:59;5.40;;;4.50;;
4867;SDS011;2448;48.086;10.862;2023-05-02T10:32:28;5.50;;;4.10;;
4867;SDS011;2448;48.086;10.862;2023-05-02T10:34:54;5.70;;;4.80;;
4867;SDS011;2448;48.086;10.862;2023-05-02T10:37:20;5.00;;;4.50;;
4867;SDS011;2448;48.086;10.862;2023-05-02T10:39:47;7.47;;;5.23;;
4867;SDS011;2448;48.086;10.862;2023-05-02T10:42:12;4.50;;;4.10;;
4867;SDS011;2448;48.086;10.862;2023-05-02T10:44:38;5.90;;;4.83;;
4867;SDS011;2448;48.086;10.862;2023-05-02T10:47:17;6.27;;;4.67;;
4867;SDS011;2448;48.086;10.862;2023-05-02T10:49:49;5.33;;;4.83;;
4867;SDS011;2448;48.086;10.862;2023-05-02T10:52:29;6.70;;;5.00;;
4867;SDS011;2448;48.086;10.862;2023-05-02T10:55:14;8.03;;;4.83;;
4867;SDS011;2448;48.086;10.862;2023-05-02T11:00:30;4.80;;;4.30;;
4867;SDS011;2448;48.086;10.862;2023-05-02T11:02:56;5.60;;;4.97;;
4867;SDS011;2448;48.086;10.862;2023-05-02T11:05:22;4.40;;;4.00;;
4867;SDS011;2448;48.086;10.862;2023-05-02T11:07:48;5.43;;;4.43;;
4867;SDS011;2448;48.086;10.862;2023-05-02T11:15:07;7.87;;;4.87;;
4867;SDS011;2448;48.086;10.862;2023-05-02T11:17:38;7.07;;;5.77;;
4867;SDS011;2448;48.086;10.862;2023-05-02T11:20:18;10.40;;;5.27;;
4867;SDS011;2448;48.086;10.862;2023-05-02T11:22:44;5.70;;;4.93;;
4867;SDS011;2448;48.086;10.862;2023-05-02T11:25:27;5.83;;;5.00;;
4867;SDS011;2448;48.086;10.862;2023-05-02T11:27:53;6.60;;;5.43;;
4867;SDS011;2448;48.086;10.862;2023-05-02T11:30:30;5.67;;;4.50;;
4867;SDS011;2448;48.086;10.862;2023-05-02T11:35:28;7.40;;;5.30;;
4867;SDS011;2448;48.086;10.862;2023-05-02T11:37:59;4.93;;;4.43;;
4867;SDS011;2448;48.086;10.862;2023-05-02T11:40:25;8.63;;;4.60;;
4867;SDS011;2448;48.086;10.862;2023-05-02T11:42:51;5.17;;;4.53;;
4867;SDS011;2448;48.086;10.862;2023-05-02T11:45:16;6.50;;;5.47;;
4867;SDS011;2448;48.086;10.862;2023-05-02T11:47:43;5.83;;;5.23;;
4867;SDS011;2448;48.086;10.862;2023-05-02T11:50:10;4.87;;;4.33;;
4867;SDS011;2448;48.086;10.862;2023-05-02T11:52:36;7.97;;;5.03;;
4867;SDS011;2448;48.086;10.862;2023-05-02T11:55:03;13.63;;;4.80;;
4867;SDS011;2448;48.086;10.862;2023-05-02T11:57:31;6.60;;;4.80;;
4867;SDS011;2448;48.086;10.862;2023-05-02T11:59:57;5.20;;;4.50;;
4867;SDS011;2448;48.086;10.862;2023-05-02T12:02:38;14.20;;;4.67;;
4867;SDS011;2448;48.086;10.862;2023-05-02T12:05:05;6.33;;;4.77;;
4867;SDS011;2448;48.086;10.862;2023-05-02T12:07:40;4.90;;;4.50;;
4867;SDS011;2448;48.086;10.862;2023-05-02T12:10:06;6.03;;;4.60;;
4867;SDS011;2448;48.086;10.862;2023-05-02T12:12:32;10.10;;;5.40;;
4867;SDS011;2448;48.086;10.862;2023-05-02T12:14:57;5.43;;;4.93;;
4867;SDS011;2448;48.086;10.862;2023-05-02T12:17:23;5.27;;;4.60;;
4867;SDS011;2448;48.086;10.862;2023-05-02T12:19:49;6.77;;;4.80;;
4867;SDS011;2448;48.086;10.862;2023-05-02T12:22:14;5.60;;;5.03;;
4867;SDS011;2448;48.086;10.862;2023-05-02T12:24:40;5.90;;;4.37;;
4867;SDS011;2448;48.086;10.862;2023-05-02T12:27:12;5.93;;;5.17;;
4867;SDS011;2448;48.086;10.862;2023-05-02T12:29:42;6.00;;;4.50;;
4867;SDS011;2448;48.086;10.862;2023-05-02T12:32:07;9.90;;;5.23;;
4867;SDS011;2448;48.086;10.862;2023-05-02T12:34:33;6.83;;;5.07;;
4867;SDS011;2448;48.086;10.862;2023-05-02T12:36:59;5.30;;;4.80;;
4867;SDS011;2448;48.086;10.862;2023-05-02T12:42:11;6.30;;;4.40;;
4867;SDS011;2448;48.086;10.862;2023-05-02T12:44:38;6.20;;;5.10;;
4867;SDS011;2448;48.086;10.862;2023-05-02T12:47:03;6.00;;;5.40;;
4867;SDS011;2448;48.086;10.862;2023-05-02T12:49:29;6.57;;;4.70;;
4867;SDS011;2448;48.086;10.862;2023-05-02T12:51:55;6.80;;;4.20;;
4867;SDS011;2448;48.086;10.862;2023-05-02T12:54:20;4.03;;;3.63;;
4867;SDS011;2448;48.086;10.862;2023-05-02T12:56:46;6.50;;;4.80;;
4867;SDS011;2448;48.086;10.862;2023-05-02T12:59:29;7.87;;;5.60;;
4867;SDS011;2448;48.086;10.862;2023-05-02T13:01:55;8.20;;;4.80;;
4867;SDS011;2448;48.086;10.862;2023-05-02T13:04:20;4.30;;;3.90;;
4867;SDS011;2448;48.086;10.862;2023-05-02T13:06:46;7.67;;;5.00;;
4867;SDS011;2448;48.086;10.862;2023-05-02T13:09:11;5.20;;;4.70;;
4867;SDS011;2448;48.086;10.862;2023-05-02T13:11:36;5.80;;;5.17;;
4867;SDS011;2448;48.086;10.862;2023-05-02T13:14:03;4.77;;;4.37;;
4867;SDS011;2448;48.086;10.862;2023-05-02T13:16:30;6.37;;;4.90;;
4867;SDS011;2448;48.086;10.862;2023-05-02T13:18:55;6.87;;;5.10;;
4867;SDS011;2448;48.086;10.862;2023-05-02T13:21:21;5.57;;;4.80;;
4867;SDS011;2448;48.086;10.862;2023-05-02T13:23:46;8.40;;;4.87;;
4867;SDS011;2448;48.086;10.862;2023-05-02T13:26:14;5.50;;;4.63;;
4867;SDS011;2448;48.086;10.862;2023-05-02T13:28:40;6.67;;;5.20;;
4867;SDS011;2448;48.086;10.862;2023-05-02T13:31:05;10.10;;;4.80;;
4867;SDS011;2448;48.086;10.862;2023-05-02T13:33:31;5.50;;;4.23;;
4867;SDS011;2448;48.086;10.862;2023-05-02T13:35:56;5.93;;;4.93;;
4867;SDS011;2448;48.086;10.862;2023-05-02T13:38:22;5.37;;;4.73;;
4867;SDS011;2448;48.086;10.862;2023-05-02T13:40:47;5.17;;;4.67;;
4867;SDS011;2448;48.086;10.862;2023-05-02T13:43:13;5.20;;;4.70;;
4867;SDS011;2448;48.086;10.862;2023-05-02T13:45:39;8.63;;;5.03;;
4867;SDS011;2448;48.086;10.862;2023-05-02T13:48:05;4.20;;;3.80;;
4867;SDS011;2448;48.086;10.862;2023-05-02T13:50:30;5.53;;;4.33;;
4867;SDS011;2448;48.086;10.862;2023-05-02T13:52:55;4.60;;;4.20;;
4867;SDS011;2448;48.086;10.862;2023-05-02T13:55:21;6.40;;;5.37;;
4867;SDS011;2448;48.086;10.862;2023-05-02T13:57:46;7.10;;;4.50;;
4867;SDS011;2448;48.086;10.862;2023-05-02T14:00:12;5.07;;;4.07;;
4867;SDS011;2448;48.086;10.862;2023-05-02T14:02:37;8.10;;;4.60;;
4867;SDS011;2448;48.086;10.862;2023-05-02T14:05:03;11.87;;;5.50;;
4867;SDS011;2448;48.086;10.862;2023-05-02T14:07:28;8.90;;;4.30;;
4867;SDS011;2448;48.086;10.862;2023-05-02T14:09:54;6.90;;;3.10;;
4867;SDS011;2448;48.086;10.862;2023-05-02T14:12:20;3.13;;;2.90;;
4867;SDS011;2448;48.086;10.862;2023-05-02T14:14:45;6.00;;;2.50;;
4867;SDS011;2448;48.086;10.862;2023-05-02T14:17:11;3.40;;;3.20;;
4867;SDS011;2448;48.086;10.862;2023-05-02T14:19:36;2.07;;;1.97;;
4867;SDS011;2448;48.086;10.862;2023-05-02T14:22:01;3.07;;;2.83;;
4867;SDS011;2448;48.086;10.862;2023-05-02T14:24:27;3.27;;;2.77;;
4867;SDS011;2448;48.086;10.862;2023-05-02T14:26:52;2.40;;;2.30;;
4867;SDS011;2448;48.086;10.862;2023-05-02T14:29:18;2.63;;;2.53;;
4867;SDS011;2448;48.086;10.862;2023-05-02T14:31:43;2.97;;;2.70;;
4867;SDS011;2448;48.086;10.862;2023-05-02T14:34:10;5.80;;;3.17;;
4867;SDS011;2448;48.086;10.862;2023-05-02T14:36:35;3.40;;;3.00;;
4867;SDS011;2448;48.086;10.862;2023-05-02T14:39:01;2.80;;;2.60;;
4867;SDS011;2448;48.086;10.862;2023-05-02T14:41:26;4.17;;;3.77;;
4867;SDS011;2448;48.086;10.862;2023-05-02T14:43:51;3.93;;;3.50;;
4867;SDS011;2448;48.086;10.862;2023-05-02T14:46:17;3.60;;;3.23;;
4867;SDS011;2448;48.086;10.862;2023-05-02T14:48:43;6.57;;;3.40;;
4867;SDS011;2448;48.086;10.862;2023-05-02T14:51:08;3.70;;;3.37;;
4867;SDS011;2448;48.086;10.862;2023-05-02T14:53:33;5.83;;;4.13;;
4867;SDS011;2448;48.086;10.862;2023-05-02T14:55:59;4.17;;;3.70;;
4867;SDS011;2448;48.086;10.862;2023-05-02T14:58:24;4.20;;;3.80;;
4867;SDS011;2448;48.086;10.862;2023-05-02T15:00:50;5.27;;;3.67;;
4867;SDS011;2448;48.086;10.862;2023-05-02T15:03:15;5.30;;;4.23;;
4867;SDS011;2448;48.086;10.862;2023-05-02T15:05:40;5.37;;;4.03;;
4867;SDS011;2448;48.086;10.862;2023-05-02T15:08:06;7.73;;;4.23;;
4867;SDS011;2448;48.086;10.862;2023-05-02T15:10:35;3.97;;;3.60;;
4867;SDS011;2448;48.086;10.862;2023-05-02T15:13:00;9.00;;;4.30;;
4867;SDS011;2448;48.086;10.862;2023-05-02T15:15:26;26.63;;;12.70;;
4867;SDS011;2448;48.086;10.862;2023-05-02T15:17:51;4.77;;;4.27;;
4867;SDS011;2448;48.086;10.862;2023-05-02T15:20:17;5.60;;;4.83;;
4867;SDS011;2448;48.086;10.862;2023-05-02T15:22:42;19.53;;;13.13;;
4867;SDS011;2448;48.086;10.862;2023-05-02T15:25:08;5.47;;;4.83;;
4867;SDS011;2448;48.086;10.862;2023-05-02T15:27:33;5.83;;;5.00;;
4867;SDS011;2448;48.086;10.862;2023-05-02T15:29:58;4.60;;;3.87;;
4867;SDS011;2448;48.086;10.862;2023-05-02T15:32:24;4.30;;;3.90;;